Time;durP1;ratioP1;P1;durP2;ratioP2;P2;SDS_P1;SDS_P2;PMS_P1;PMS_P2;Temp;Humidity;BMP_temperature;BMP_pressure;BME280_temperature;BME280_humidity;BME280_pressure;Samples;Min_cycle;Max_cycle;Signal;HPM_P1;HPM_P2
2022/10/25 00:02:24;;;;;;;2.42;1.50;;;15.40;99.90;;;;;;1897752;75;21162;-82
2022/10/25 00:05:16;;;;;;;2.37;1.50;;;15.30;99.90;;;;;;1885111;75;21168;-83
2022/10/25 00:08:09;;;;;;;2.77;1.50;;;15.30;99.90;;;;;;1899977;75;21100;-82
2022/10/25 00:13:40;;;;;;;4.03;1.42;;;15.20;99.90;;;;;;1965649;72;22601;-82
2022/10/25 00:16:33;;;;;;;3.80;1.27;;;15.20;99.90;;;;;;1923024;73;21097;-82
2022/10/25 00:22:03;;;;;;;4.30;1.30;;;15.20;99.90;;;;;;1955650;72;22676;-82
2022/10/25 00:24:54;;;;;;;3.98;1.20;;;15.20;99.90;;;;;;1917594;74;21132;-82
2022/10/25 00:27:46;;;;;;;2.25;1.60;;;15.20;99.90;;;;;;1898069;75;21506;-82
2022/10/25 00:30:38;;;;;;;3.10;1.50;;;15.10;99.90;;;;;;1884459;75;21224;-83
2022/10/25 00:33:31;;;;;;;3.35;1.85;;;15.10;99.90;;;;;;1891964;75;21550;-82
2022/10/25 00:36:24;;;;;;;2.08;1.40;;;15.10;99.90;;;;;;1901134;73;21202;-83
2022/10/25 00:39:15;;;;;;;3.17;1.67;;;15.00;99.90;;;;;;1897296;73;21197;-83
2022/10/25 00:42:08;;;;;;;3.50;1.72;;;15.00;99.90;;;;;;1895663;73;21150;-84
2022/10/25 00:45:01;;;;;;;2.80;1.57;;;15.00;99.90;;;;;;1895383;73;21150;-83
2022/10/25 00:47:57;;;;;;;3.17;1.92;;;15.00;99.90;;;;;;1897900;73;21173;-83
2022/10/25 00:50:51;;;;;;;4.87;2.08;;;15.00;99.90;;;;;;1897625;73;21435;-83
2022/10/25 00:53:43;;;;;;;4.85;2.08;;;15.00;99.90;;;;;;1896639;73;21140;-83
2022/10/25 00:56:38;;;;;;;2.87;1.85;;;15.00;99.90;;;;;;1895316;73;21180;-82
2022/10/25 00:59:29;;;;;;;2.40;1.85;;;15.00;99.90;;;;;;1896721;73;21206;-82
2022/10/25 01:02:22;;;;;;;3.40;1.92;;;15.00;99.90;;;;;;1899265;73;21621;-83
2022/10/25 01:05:13;;;;;;;2.80;1.70;;;15.00;99.90;;;;;;1895170;73;21168;-82
2022/10/25 01:08:06;;;;;;;3.00;1.90;;;15.00;99.90;;;;;;1897460;73;21676;-82
2022/10/25 01:10:57;;;;;;;2.42;1.70;;;15.00;99.90;;;;;;1896816;73;21134;-82
2022/10/25 01:13:50;;;;;;;3.92;1.80;;;14.90;99.90;;;;;;1895561;73;21157;-82
2022/10/25 01:16:44;;;;;;;4.12;1.72;;;14.90;99.90;;;;;;1897812;73;21211;-82
2022/10/25 01:19:48;;;;;;;7.05;1.80;;;14.90;99.90;;;;;;1898003;73;21126;-82
2022/10/25 01:22:42;;;;;;;5.47;1.77;;;14.90;99.90;;;;;;1909453;73;21145;-82
2022/10/25 01:25:55;;;;;;;3.33;2.00;;;14.90;99.90;;;;;;1912831;73;21153;-82
2022/10/25 01:28:54;;;;;;;7.22;2.30;;;14.90;99.90;;;;;;1911222;73;21089;-82
2022/10/25 01:31:48;;;;;;;5.67;2.02;;;14.90;99.90;;;;;;1911874;73;21215;-82
2022/10/25 01:34:42;;;;;;;3.87;2.15;;;14.80;99.90;;;;;;1913153;73;21483;-83
2022/10/25 01:40:19;;;;;;;5.03;1.87;;;14.80;99.90;;;;;;1952172;72;22147;-82
2022/10/25 01:43:13;;;;;;;3.47;1.60;;;14.80;99.90;;;;;;1887599;75;21146;-82
2022/10/25 01:46:08;;;;;;;6.17;2.17;;;14.70;99.90;;;;;;1905123;75;21087;-82
2022/10/25 01:49:03;;;;;;;5.58;1.80;;;14.70;99.90;;;;;;1872472;75;21163;-82
2022/10/25 01:54:34;;;;;;;4.22;2.10;;;14.70;99.90;;;;;;1947732;72;22111;-82
2022/10/25 02:00:25;;;;;;;4.45;1.92;;;14.70;99.90;;;;;;1935983;72;22640;-82
2022/10/25 02:03:20;;;;;;;3.72;1.65;;;14.70;99.90;;;;;;1886957;75;21054;-82
2022/10/25 02:09:01;;;;;;;4.05;1.55;;;14.60;99.90;;;;;;1944693;72;22142;-82
2022/10/25 02:11:55;;;;;;;2.72;1.47;;;14.60;99.90;;;;;;1876771;75;21121;-84
2022/10/25 02:17:27;;;;;;;3.22;1.55;;;14.60;99.90;;;;;;1937588;72;22213;-82
2022/10/25 02:20:21;;;;;;;3.10;1.62;;;14.60;99.90;;;;;;1898229;74;21047;-84
2022/10/25 02:23:15;;;;;;;2.85;1.62;;;14.70;99.90;;;;;;1906498;75;21163;-83
2022/10/25 02:26:08;;;;;;;4.00;1.70;;;14.80;99.90;;;;;;1898416;75;21111;-83
2022/10/25 02:29:00;;;;;;;2.10;1.62;;;14.80;99.90;;;;;;1893868;75;21039;-83
2022/10/25 02:31:52;;;;;;;2.58;1.82;;;14.80;99.90;;;;;;1903223;73;21553;-82
2022/10/25 02:34:43;;;;;;;4.83;1.47;;;14.90;99.90;;;;;;1885957;73;21169;-83
2022/10/25 02:37:35;;;;;;;3.08;1.60;;;14.90;99.90;;;;;;1901336;73;21154;-83
2022/10/25 02:40:27;;;;;;;4.12;1.70;;;14.90;99.90;;;;;;1895209;73;21200;-83
2022/10/25 02:43:18;;;;;;;3.60;1.40;;;14.80;99.90;;;;;;1894501;73;21178;-83
2022/10/25 02:46:11;;;;;;;3.75;1.45;;;14.80;99.90;;;;;;1898089;73;21138;-83
2022/10/25 02:49:02;;;;;;;1.55;1.40;;;14.80;99.90;;;;;;1896353;73;21627;-82
2022/10/25 02:51:53;;;;;;;2.58;1.37;;;14.80;99.90;;;;;;1897176;73;21093;-83
2022/10/25 02:54:44;;;;;;;4.15;1.50;;;14.80;99.90;;;;;;1896634;73;21723;-82
2022/10/25 02:57:36;;;;;;;3.12;1.30;;;14.80;99.90;;;;;;1897141;73;21173;-82
2022/10/25 03:12:35;;;;;;;3.25;1.40;;;14.90;99.90;;;;;;1900762;73;21108;-82
2022/10/25 03:15:26;;;;;;;2.75;1.50;;;14.90;99.90;;;;;;1908040;73;21673;-82
2022/10/25 03:18:18;;;;;;;1.50;1.12;;;14.80;99.90;;;;;;1910698;73;21468;-82
2022/10/25 03:21:09;;;;;;;2.77;1.40;;;14.80;99.90;;;;;;1912665;73;21196;-83
2022/10/25 03:24:00;;;;;;;4.03;1.70;;;14.80;99.90;;;;;;1912036;73;21230;-82
2022/10/25 03:26:51;;;;;;;2.98;1.92;;;14.80;99.90;;;;;;1909448;73;21628;-83
2022/10/25 03:29:43;;;;;;;4.72;2.40;;;14.70;99.90;;;;;;1914195;73;21137;-83
2022/10/25 03:32:34;;;;;;;6.47;2.12;;;14.70;99.90;;;;;;1910618;73;21263;-82
2022/10/25 03:35:26;;;;;;;2.22;1.82;;;14.70;99.90;;;;;;1913446;73;21150;-82
2022/10/25 03:38:17;;;;;;;4.35;2.27;;;14.70;99.90;;;;;;1913730;73;21233;-82
2022/10/25 03:41:08;;;;;;;3.83;2.62;;;14.60;99.90;;;;;;1912175;73;21137;-82
2022/10/25 03:44:00;;;;;;;8.70;2.90;;;14.60;99.90;;;;;;1914244;73;21726;-82
2022/10/25 03:46:51;;;;;;;4.67;2.90;;;14.60;99.90;;;;;;1910398;73;21157;-82
2022/10/25 03:49:43;;;;;;;4.05;2.80;;;14.50;99.90;;;;;;1913150;73;21621;-83
2022/10/25 03:52:34;;;;;;;4.20;2.50;;;14.40;99.90;;;;;;1911980;73;21134;-82
2022/10/25 03:55:26;;;;;;;3.52;2.55;;;14.40;99.90;;;;;;1920458;73;21164;-83
2022/10/25 03:58:18;;;;;;;4.05;2.37;;;14.30;99.90;;;;;;1916715;73;21121;-83
2022/10/25 04:01:10;;;;;;;3.37;2.85;;;14.30;99.90;;;;;;1916705;73;21258;-82
2022/10/25 04:04:01;;;;;;;4.80;2.87;;;14.30;99.90;;;;;;1915640;73;21152;-83
2022/10/25 04:06:53;;;;;;;3.47;2.95;;;14.30;99.90;;;;;;1918343;73;21884;-83
2022/10/25 04:09:45;;;;;;;4.15;3.30;;;14.30;99.90;;;;;;1918765;73;21424;-82
2022/10/25 04:12:36;;;;;;;4.90;3.12;;;14.20;99.90;;;;;;1919023;73;21142;-82
2022/10/25 04:15:28;;;;;;;5.25;3.20;;;14.20;99.90;;;;;;1840453;76;21187;-82
2022/10/25 04:18:19;;;;;;;5.42;3.40;;;14.20;99.90;;;;;;1917858;73;21241;-83
2022/10/25 04:21:10;;;;;;;5.97;3.55;;;14.20;99.90;;;;;;1915758;73;21201;-83
2022/10/25 04:24:01;;;;;;;5.72;4.22;;;14.10;99.90;;;;;;1918328;73;21129;-83
2022/10/25 04:26:54;;;;;;;7.75;4.28;;;14.10;99.90;;;;;;1907984;73;21115;-82
2022/10/25 04:29:48;;;;;;;5.70;4.35;;;14.10;99.90;;;;;;1922063;74;21171;-83
2022/10/25 04:32:42;;;;;;;5.87;4.60;;;14.10;99.90;;;;;;1920754;74;21171;-84
2022/10/25 04:35:39;;;;;;;7.35;5.12;;;14.10;99.90;;;;;;1899406;74;21079;-84
2022/10/25 04:38:32;;;;;;;6.55;5.00;;;14.00;99.90;;;;;;1914962;73;21682;-84
2022/10/25 04:41:25;;;;;;;6.78;5.03;;;14.00;99.90;;;;;;1909332;73;21493;-85
2022/10/25 04:44:20;;;;;;;8.65;5.65;;;13.80;99.90;;;;;;1925796;74;21057;-84
2022/10/25 04:47:15;;;;;;;6.78;5.50;;;13.70;99.90;;;;;;1910208;74;21069;-84
2022/10/25 04:50:09;;;;;;;9.43;5.17;;;13.70;99.90;;;;;;1915908;74;21097;-84
2022/10/25 04:53:04;;;;;;;6.83;5.10;;;13.70;99.90;;;;;;1897895;74;21038;-84
2022/10/25 04:56:00;;;;;;;5.60;4.50;;;13.70;99.90;;;;;;1931056;74;21138;-84
2022/10/25 04:58:55;;;;;;;5.33;4.50;;;13.70;99.90;;;;;;1909681;73;21242;-85
2022/10/25 05:01:49;;;;;;;8.45;3.87;;;13.80;99.90;;;;;;1914582;73;21140;-85
2022/10/25 05:04:43;;;;;;;5.35;4.15;;;13.80;99.90;;;;;;1914053;74;21043;-85
2022/10/25 05:07:36;;;;;;;5.05;3.98;;;13.70;99.90;;;;;;1915317;74;21058;-84
2022/10/25 05:10:28;;;;;;;4.90;3.35;;;13.70;99.90;;;;;;1889832;74;21248;-84
2022/10/25 05:13:21;;;;;;;5.47;3.75;;;13.60;99.90;;;;;;1905521;74;21050;-84
2022/10/25 05:16:21;;;;;;;6.05;3.90;;;13.60;99.90;;;;;;1914496;74;21183;-85
2022/10/25 05:19:14;;;;;;;5.40;4.05;;;13.50;99.90;;;;;;1891481;75;21600;-85
2022/10/25 05:22:07;;;;;;;5.22;3.30;;;13.40;99.90;;;;;;1905232;75;21522;-85
2022/10/25 05:25:00;;;;;;;4.20;3.12;;;13.30;99.90;;;;;;1888102;75;21084;-84
2022/10/25 05:27:53;;;;;;;5.87;3.00;;;13.30;99.90;;;;;;1873693;76;21199;-85
2022/10/25 05:30:49;;;;;;;5.20;3.50;;;13.30;99.90;;;;;;1895439;75;21205;-84
2022/10/25 05:33:44;;;;;;;4.35;3.33;;;13.20;99.90;;;;;;1895407;75;21247;-85
2022/10/25 05:36:36;;;;;;;6.05;3.60;;;13.20;99.90;;;;;;1896704;75;21067;-84
2022/10/25 05:39:30;;;;;;;4.28;3.65;;;13.20;99.90;;;;;;1889828;75;21051;-84
2022/10/25 05:42:25;;;;;;;4.03;3.27;;;13.30;99.90;;;;;;1896891;75;21198;-84
2022/10/25 05:45:18;;;;;;;4.10;3.22;;;13.30;99.90;;;;;;1899676;75;21171;-83
2022/10/25 05:48:11;;;;;;;4.17;3.42;;;13.30;99.90;;;;;;1883166;75;21117;-84
2022/10/25 05:51:16;;;;;;;5.97;4.00;;;13.30;99.90;;;;;;1875938;75;21096;-84
2022/10/25 05:54:13;;;;;;;5.67;4.47;;;13.20;99.90;;;;;;1871840;75;21219;-79
2022/10/25 05:57:09;;;;;;;5.20;4.08;;;13.20;99.90;;;;;;1893914;75;21094;-87
2022/10/25 06:02:40;;;;;;;5.92;3.20;;;13.20;99.90;;;;;;1942720;72;22169;-88
2022/10/25 06:05:33;;;;;;;6.87;3.75;;;13.20;99.90;;;;;;1917592;75;21114;-89
2022/10/25 06:08:25;;;;;;;7.72;6.42;;;13.20;99.90;;;;;;1917562;75;21103;-88
2022/10/25 06:11:25;;;;;;;4.97;4.47;;;13.20;99.90;;;;;;1900791;75;21119;-89
2022/10/25 06:14:17;;;;;;;4.97;3.60;;;13.20;99.90;;;;;;1897145;75;21164;-89
2022/10/25 06:17:08;;;;;;;4.70;3.45;;;13.20;99.90;;;;;;1916753;75;21099;-88
2022/10/25 06:19:59;;;;;;;4.95;3.08;;;13.10;99.90;;;;;;1917401;75;21059;-88
2022/10/25 06:22:51;;;;;;;5.83;3.72;;;13.10;99.90;;;;;;1917575;75;21094;-88
2022/10/25 06:25:42;;;;;;;3.37;2.80;;;13.10;99.90;;;;;;1917675;75;21378;-88
2022/10/25 06:28:34;;;;;;;3.15;2.77;;;13.10;99.90;;;;;;1917852;75;21047;-90
2022/10/25 06:31:26;;;;;;;3.40;3.10;;;13.10;99.90;;;;;;1917555;75;21058;-89
2022/10/25 06:34:19;;;;;;;3.45;3.05;;;13.10;99.90;;;;;;1917448;75;21138;-89
2022/10/25 06:37:10;;;;;;;4.17;3.77;;;13.00;99.90;;;;;;1884577;76;21136;-90
2022/10/25 06:40:02;;;;;;;3.95;3.45;;;13.00;99.90;;;;;;1917902;75;21059;-88
2022/10/25 06:42:56;;;;;;;4.10;3.47;;;13.00;99.90;;;;;;1917631;75;21094;-89
2022/10/25 06:45:47;;;;;;;6.85;3.98;;;13.10;99.90;;;;;;1917668;75;21048;-88
2022/10/25 06:48:39;;;;;;;4.67;2.95;;;13.10;99.90;;;;;;1902009;75;21686;-89
2022/10/25 06:51:31;;;;;;;3.20;2.90;;;13.20;99.90;;;;;;1897048;75;21062;-89
2022/10/25 06:54:24;;;;;;;5.70;4.10;;;13.20;99.90;;;;;;1917623;75;21083;-89
2022/10/25 06:57:15;;;;;;;5.10;3.52;;;13.20;99.90;;;;;;1922260;74;21563;-89
2022/10/25 07:00:09;;;;;;;4.30;2.90;;;13.20;99.90;;;;;;1918687;75;21140;-90
2022/10/25 07:03:01;;;;;;;5.05;3.35;;;13.20;99.90;;;;;;1905512;74;21071;-90
2022/10/25 07:05:52;;;;;;;5.08;3.47;;;13.20;99.90;;;;;;1927164;74;21123;-89
2022/10/25 07:08:46;;;;;;;3.72;2.90;;;13.30;99.90;;;;;;1927463;74;21051;-90
2022/10/25 07:11:38;;;;;;;9.13;3.67;;;13.30;99.90;;;;;;1927323;74;21094;-89
2022/10/25 07:14:29;;;;;;;4.08;3.27;;;13.30;99.90;;;;;;1926413;74;21143;-89
2022/10/25 07:17:21;;;;;;;4.22;2.83;;;13.30;99.90;;;;;;1926758;74;21182;-89
2022/10/25 07:20:13;;;;;;;8.30;3.12;;;13.30;99.90;;;;;;1926786;74;21144;-90
2022/10/25 07:23:04;;;;;;;3.80;2.80;;;13.30;99.90;;;;;;1926647;74;21638;-90
2022/10/25 07:25:58;;;;;;;4.83;2.62;;;13.30;99.90;;;;;;1926624;74;21117;-90
2022/10/25 07:28:52;;;;;;;4.67;2.90;;;13.40;99.90;;;;;;1893636;76;21063;-89
2022/10/25 07:31:44;;;;;;;5.58;2.70;;;13.30;99.90;;;;;;1923713;74;21433;-90
2022/10/25 07:34:36;;;;;;;3.85;2.62;;;13.40;99.90;;;;;;1926665;74;21147;-90
2022/10/25 07:37:27;;;;;;;3.05;2.83;;;13.40;99.90;;;;;;1926730;74;21043;-91
2022/10/25 07:40:19;;;;;;;3.30;2.95;;;13.40;99.90;;;;;;1926848;74;21058;-90
2022/10/25 07:43:11;;;;;;;4.83;3.00;;;13.50;99.90;;;;;;1927352;74;21103;-90
2022/10/25 07:46:03;;;;;;;5.37;3.08;;;13.50;99.90;;;;;;1926727;74;21101;-91
2022/10/25 07:48:55;;;;;;;4.28;3.42;;;13.50;99.90;;;;;;1847959;78;21102;-90
2022/10/25 07:51:46;;;;;;;4.40;3.20;;;13.60;99.90;;;;;;1902253;74;21041;-92
2022/10/25 07:54:38;;;;;;;4.85;3.35;;;13.60;99.90;;;;;;1917429;74;21056;-92
2022/10/25 07:57:29;;;;;;;4.37;3.40;;;13.70;99.90;;;;;;1917162;75;21157;-92
2022/10/25 08:00:21;;;;;;;6.47;4.08;;;13.70;99.90;;;;;;1917202;75;21082;-91
2022/10/25 08:03:14;;;;;;;4.22;3.17;;;13.80;99.90;;;;;;1884424;76;21178;-91
2022/10/25 08:06:06;;;;;;;5.03;2.90;;;13.80;99.90;;;;;;1897548;74;21093;-92
2022/10/25 08:08:57;;;;;;;4.33;3.27;;;13.70;99.90;;;;;;1922759;74;21131;-93
2022/10/25 08:11:50;;;;;;;4.37;3.20;;;13.70;99.90;;;;;;1917789;74;21067;-92
2022/10/25 08:14:42;;;;;;;5.55;3.80;;;13.70;99.90;;;;;;1920984;74;21117;-92
2022/10/25 08:17:35;;;;;;;6.47;4.25;;;13.80;99.90;;;;;;1917297;75;21668;-91
2022/10/25 08:20:27;;;;;;;5.80;4.90;;;13.90;99.90;;;;;;1917041;75;21055;-92
2022/10/25 08:23:20;;;;;;;7.47;4.87;;;13.90;99.90;;;;;;1916985;75;21185;-93
2022/10/25 08:26:11;;;;;;;5.53;4.47;;;14.00;99.90;;;;;;1918081;75;21132;-93
2022/10/25 08:29:03;;;;;;;7.22;3.50;;;14.10;99.90;;;;;;1917117;75;21103;-93
2022/10/25 08:31:54;;;;;;;5.15;3.72;;;14.20;99.90;;;;;;1918778;75;21120;-92
2022/10/25 08:34:46;;;;;;;3.40;3.10;;;14.20;99.90;;;;;;1917298;75;21175;-93
2022/10/25 08:37:37;;;;;;;5.62;2.98;;;14.30;99.90;;;;;;1916964;75;21135;-91
2022/10/25 08:40:33;;;;;;;3.85;3.00;;;14.30;99.90;;;;;;1920228;74;21167;-92
2022/10/25 08:43:34;;;;;;;2.95;2.60;;;14.40;99.90;;;;;;1895746;75;21166;-92
2022/10/25 08:46:29;;;;;;;4.83;2.47;;;14.50;99.90;;;;;;1917202;75;21063;-93
2022/10/25 09:06:15;;;;;;;3.55;1.80;;;15.20;99.90;;;;;;1963221;72;22163;-90
2022/10/25 09:09:18;;;;;;;3.70;2.10;;;15.20;99.90;;;;;;1917825;75;21078;-93
2022/10/25 09:12:14;;;;;;;2.52;1.60;;;15.30;99.90;;;;;;1917831;75;21086;-92
2022/10/25 09:15:09;;;;;;;4.85;1.85;;;15.40;99.90;;;;;;1940217;73;21163;-92
2022/10/25 09:18:04;;;;;;;5.05;2.85;;;15.40;99.90;;;;;;1917814;75;21608;-91
2022/10/25 09:20:55;;;;;;;4.03;2.75;;;15.40;99.90;;;;;;1931876;73;21479;-92
2022/10/25 09:26:42;;;;;;;3.65;2.00;;;15.50;99.90;;;;;;1950117;72;22135;-90
2022/10/25 09:29:37;;;;;;;2.60;2.12;;;15.60;99.90;;;;;;1906003;75;21080;-92
2022/10/25 09:32:34;;;;;;;4.67;2.45;;;15.70;99.90;;;;;;1885133;76;21066;-91
2022/10/25 09:35:28;;;;;;;4.70;2.60;;;15.80;99.90;;;;;;1897211;75;21050;-90
2022/10/25 09:38:22;;;;;;;3.25;1.67;;;15.90;99.90;;;;;;1888222;75;21502;-90
2022/10/25 09:41:17;;;;;;;3.85;1.70;;;16.00;99.90;;;;;;1889204;75;21164;-90
2022/10/25 09:47:01;;;;;;;2.67;1.20;;;16.20;99.90;;;;;;1960729;72;22123;-89
2022/10/25 09:49:57;;;;;;;2.30;1.60;;;16.30;99.90;;;;;;1929141;73;21581;-90
2022/10/25 09:52:52;;;;;;;6.95;1.95;;;16.30;99.90;;;;;;1921959;73;21120;-89
2022/10/25 09:55:49;;;;;;;4.08;1.45;;;16.40;99.90;;;;;;1940443;73;21575;-89
2022/10/25 09:58:43;;;;;;;7.72;2.70;;;16.40;99.90;;;;;;1939225;73;21207;-90
2022/10/25 10:01:37;;;;;;;5.47;2.20;;;16.50;99.90;;;;;;1934394;73;21117;-89
2022/10/25 10:04:33;;;;;;;4.80;2.05;;;16.60;99.90;;;;;;1917773;73;21631;-89
2022/10/25 10:07:28;;;;;;;3.27;1.40;;;16.70;99.90;;;;;;1917592;73;21058;-89
2022/10/25 10:10:23;;;;;;;3.87;1.42;;;16.80;99.90;;;;;;1917698;75;21146;-89
2022/10/25 10:13:21;;;;;;;2.33;1.65;;;16.90;99.90;;;;;;1938874;73;21118;-89
2022/10/25 10:16:18;;;;;;;3.80;1.75;;;16.90;99.90;;;;;;1917698;75;21107;-89
2022/10/25 10:19:17;;;;;;;3.87;1.92;;;17.00;99.90;;;;;;1917888;75;21551;-88
2022/10/25 10:22:11;;;;;;;5.55;2.05;;;17.00;99.90;;;;;;1917860;75;21128;-89
2022/10/25 10:25:05;;;;;;;3.50;1.82;;;17.10;99.90;;;;;;1940958;73;22010;-89
2022/10/25 10:27:59;;;;;;;4.20;1.52;;;17.10;99.90;;;;;;1917765;75;21141;-89
2022/10/25 10:30:56;;;;;;;4.47;1.80;;;17.20;99.90;;;;;;1935687;73;21047;-90
2022/10/25 10:33:51;;;;;;;4.58;2.08;;;17.20;99.90;;;;;;1917950;75;21048;-90
2022/10/25 10:36:44;;;;;;;7.15;2.62;;;17.40;99.90;;;;;;1918190;75;21082;-89
2022/10/25 10:39:35;;;;;;;3.40;2.33;;;17.50;99.90;;;;;;1921355;75;21039;-90
2022/10/25 10:42:34;;;;;;;5.58;2.47;;;17.50;99.90;;;;;;1918266;75;21083;-89
2022/10/25 10:45:25;;;;;;;2.20;1.75;;;17.60;99.90;;;;;;1935536;73;21094;-89
2022/10/25 10:48:20;;;;;;;3.62;1.85;;;17.60;99.90;;;;;;1905854;75;21066;-88
2022/10/25 10:51:14;;;;;;;5.60;1.90;;;17.70;99.90;;;;;;1905814;75;21092;-88
2022/10/25 11:08:24;;;;;;;5.58;2.42;;;17.70;99.90;;;;;;1843974;76;28300;-90
2022/10/25 11:14:12;;;;;;;4.55;1.92;;;18.10;99.90;;;;;;1954911;72;22239;-90
2022/10/25 11:17:07;;;;;;;4.00;2.00;;;18.20;99.90;;;;;;1929819;73;21055;-90
2022/10/25 11:20:05;;;;;;;3.87;2.02;;;18.30;99.90;;;;;;1921212;73;21092;-89
2022/10/25 11:22:59;;;;;;;;;;;18.40;99.90;;;;;;1911753;75;21115;-89
2022/10/25 11:25:54;;;;;;;4.58;1.62;;;18.50;99.90;;;;;;1914295;73;20226;-88
2022/10/25 11:28:50;;;;;;;5.20;1.92;;;18.70;99.90;;;;;;1931697;73;21091;-90
2022/10/25 11:31:49;;;;;;;4.75;2.10;;;18.90;99.90;;;;;;1941140;73;21113;-89
2022/10/25 11:34:43;;;;;;;3.30;1.20;;;19.10;99.90;;;;;;1928503;73;21145;-88
2022/10/25 11:37:37;;;;;;;5.58;1.42;;;19.20;99.90;;;;;;1912213;73;21106;-88
2022/10/25 11:40:32;;;;;;;3.08;1.62;;;19.20;99.90;;;;;;1899163;74;21592;-88
2022/10/25 11:46:41;;;;;;;2.35;1.20;;;19.40;99.90;;;;;;1967428;72;22164;-88
2022/10/25 11:49:41;;;;;;;3.75;1.47;;;19.60;99.90;;;;;;1923179;73;21039;-89
2022/10/25 11:52:47;;;;;;;2.37;1.20;;;19.80;99.90;;;;;;1928880;73;21083;-89
2022/10/25 11:55:43;;;;;;;2.75;1.57;;;19.80;99.90;;;;;;1928837;73;21114;-88
2022/10/25 11:58:44;;;;;;;3.35;1.40;;;19.80;99.90;;;;;;1917830;75;21035;-89
2022/10/25 12:01:41;;;;;;;2.35;1.10;;;19.90;99.90;;;;;;1917634;75;21049;-88
2022/10/25 12:04:51;;;;;;;2.85;1.30;;;19.80;99.90;;;;;;1917759;75;21062;-89
2022/10/25 12:10:28;;;;;;;1.90;1.10;;;19.80;99.90;;;;;;1953609;72;22159;-88
2022/10/25 12:13:23;;;;;;;3.45;1.42;;;19.90;99.90;;;;;;1873903;75;21580;-88
2022/10/25 12:16:17;;;;;;;2.42;1.37;;;19.90;99.90;;;;;;1905447;75;21063;-89
2022/10/25 12:19:14;;;;;;;4.17;1.45;;;19.90;99.90;;;;;;1885850;75;21121;-88
2022/10/25 12:22:08;;;;;;;1.95;1.02;;;19.90;99.90;;;;;;1896783;75;21194;-88
2022/10/25 12:25:01;;;;;;;5.62;1.47;;;20.00;99.90;;;;;;1895293;75;21056;-88
2022/10/25 12:27:59;;;;;;;3.72;1.40;;;20.00;99.90;;;;;;1897580;75;22071;-88
2022/10/25 12:30:52;;;;;;;3.12;1.60;;;20.10;99.90;;;;;;1873665;76;21051;-89
2022/10/25 12:33:46;;;;;;;5.00;1.50;;;20.10;99.90;;;;;;1873358;76;21557;-88
2022/10/25 12:36:40;;;;;;;4.95;1.65;;;20.10;99.90;;;;;;1873339;76;21209;-87
2022/10/25 12:39:36;;;;;;;4.72;1.45;;;20.10;99.90;;;;;;1873268;76;21507;-87
2022/10/25 12:49:00;;;;;;;4.22;1.40;;;20.30;99.90;;;;;;1958317;72;22126;-87
2022/10/25 12:52:00;;;;;;;2.98;1.40;;;20.60;99.90;;;;;;1913588;75;21153;-87
2022/10/25 12:55:10;;;;;;;3.45;1.10;;;20.70;99.90;;;;;;1913476;75;21549;-88
2022/10/25 12:58:15;;;;;;;5.33;1.70;;;20.80;99.90;;;;;;1895723;75;21128;-87
2022/10/25 13:01:14;;;;;;;3.77;1.85;;;21.00;99.90;;;;;;1910753;75;21047;-87
2022/10/25 13:04:28;;;;;;;6.67;1.60;;;21.10;99.90;;;;;;1914532;75;21099;-87
2022/10/25 13:07:21;;;;;;;5.67;1.50;;;21.10;99.90;;;;;;1914774;75;21114;-87
2022/10/25 13:10:20;;;;;;;2.30;1.10;;;21.10;99.90;;;;;;1914620;75;21128;-87
2022/10/25 13:13:18;;;;;;;3.37;1.80;;;21.10;99.90;;;;;;1914838;75;21112;-87
2022/10/25 13:16:16;;;;;;;3.45;1.12;;;21.00;99.90;;;;;;1915489;75;21107;-87
2022/10/25 13:19:31;;;;;;;2.67;1.20;;;20.80;99.90;;;;;;1895117;75;21126;-87
2022/10/25 13:22:36;;;;;;;4.80;1.30;;;20.60;99.90;;;;;;1895801;75;21050;-87
2022/10/25 13:26:05;;;;;;;4.45;1.07;;;20.50;99.90;;;;;;1894440;75;21071;-87
2022/10/25 13:28:58;;;;;;;4.83;1.60;;;20.40;99.90;;;;;;1896800;75;21050;-87
2022/10/25 13:31:59;;;;;;;2.83;1.20;;;20.20;99.90;;;;;;1917316;75;21094;-87
2022/10/25 13:34:51;;;;;;;3.67;1.77;;;20.20;99.90;;;;;;1914406;75;21574;-87
2022/10/25 13:37:44;;;;;;;2.58;1.05;;;20.10;99.90;;;;;;1914666;75;21087;-87
2022/10/25 13:40:37;;;;;;;5.67;1.50;;;20.00;99.90;;;;;;1915340;75;21051;-87
2022/10/25 13:43:28;;;;;;;5.65;3.50;;;19.90;99.90;;;;;;1895755;75;21118;-87
2022/10/25 13:46:21;;;;;;;3.30;1.55;;;19.90;99.90;;;;;;1916175;75;21089;-87
2022/10/25 13:49:32;;;;;;;4.65;1.10;;;19.90;99.90;;;;;;1916291;75;21172;-87
2022/10/25 13:52:27;;;;;;;4.62;1.00;;;19.90;99.90;;;;;;1914028;75;21096;-88
2022/10/25 13:55:22;;;;;;;2.50;1.27;;;19.90;99.90;;;;;;1915243;75;21638;-87
2022/10/25 13:58:45;;;;;;;4.10;1.67;;;19.90;99.90;;;;;;1897851;75;21095;-87
2022/10/25 14:01:54;;;;;;;3.47;1.50;;;20.00;99.90;;;;;;1898826;75;21163;-87
2022/10/25 14:04:46;;;;;;;5.87;3.45;;;20.10;99.90;;;;;;1897446;75;21950;-88
2022/10/25 14:07:49;;;;;;;6.75;1.92;;;20.10;99.90;;;;;;1915779;75;21055;-88
2022/10/25 14:10:43;;;;;;;7.08;1.55;;;20.10;99.90;;;;;;1905278;75;21169;-86
2022/10/25 14:13:38;;;;;;;7.95;1.50;;;20.10;99.90;;;;;;1919091;75;21086;-87
2022/10/25 14:16:32;;;;;;;8.03;2.22;;;20.10;99.90;;;;;;1915573;75;21113;-86
2022/10/25 14:19:27;;;;;;;5.15;1.77;;;20.00;99.90;;;;;;1913135;75;21125;-87
2022/10/25 14:22:20;;;;;;;9.33;2.35;;;20.00;99.90;;;;;;1894188;75;21094;-87
2022/10/25 14:25:20;;;;;;;4.95;1.85;;;20.00;99.90;;;;;;1891987;75;21145;-87
2022/10/25 14:28:16;;;;;;;4.10;1.25;;;20.00;99.90;;;;;;1892327;75;21097;-87
2022/10/25 14:31:08;;;;;;;4.92;1.30;;;19.90;99.90;;;;;;1892444;75;21049;-87
2022/10/25 14:33:59;;;;;;;3.52;1.40;;;19.80;99.90;;;;;;1915112;75;21046;-87
2022/10/25 14:36:52;;;;;;;4.65;1.52;;;19.80;99.90;;;;;;1914509;75;21179;-87
2022/10/25 14:39:54;;;;;;;5.85;1.70;;;19.80;99.90;;;;;;1891704;75;21083;-87
2022/10/25 14:42:46;;;;;;;2.95;1.20;;;19.70;99.90;;;;;;1910301;75;21086;-78
2022/10/25 14:45:38;;;;;;;4.28;1.17;;;19.70;99.90;;;;;;1914465;75;21051;-77
2022/10/25 14:48:31;;;;;;;4.53;1.25;;;19.70;99.90;;;;;;1893364;75;21184;-77
2022/10/25 14:51:26;;;;;;;3.37;1.55;;;19.80;99.90;;;;;;1897324;75;21165;-77
2022/10/25 14:54:27;;;;;;;2.30;1.30;;;19.80;99.90;;;;;;1850313;77;21252;-78
2022/10/25 14:57:22;;;;;;;4.67;1.45;;;19.90;99.90;;;;;;1814868;78;21121;-77
2022/10/25 15:00:22;;;;;;;4.55;1.32;;;19.80;99.90;;;;;;1836287;77;21582;-78
2022/10/25 15:03:14;;;;;;;4.58;1.50;;;19.80;99.90;;;;;;1824362;79;21163;-78
2022/10/25 15:06:06;;;;;;;3.70;1.42;;;19.90;99.90;;;;;;1816008;78;21165;-76
2022/10/25 15:08:59;;;;;;;2.42;1.17;;;19.90;99.90;;;;;;1850318;77;21075;-78
2022/10/25 15:12:14;;;;;;;6.45;1.30;;;19.80;99.90;;;;;;1842784;77;21185;-78
2022/10/25 15:15:30;;;;;;;6.12;1.55;;;19.70;99.90;;;;;;1815040;78;21050;-77
2022/10/25 15:18:35;;;;;;;4.45;1.80;;;19.60;99.90;;;;;;1850541;77;21176;-77
2022/10/25 15:21:29;;;;;;;3.83;1.65;;;19.60;99.90;;;;;;1815227;78;21067;-77
2022/10/25 15:24:23;;;;;;;3.58;1.52;;;19.60;99.90;;;;;;1824444;79;21519;-78
2022/10/25 15:27:29;;;;;;;3.08;1.60;;;19.60;99.90;;;;;;1816471;78;21178;-76
2022/10/25 15:33:19;;;;;;;4.70;1.30;;;19.50;99.90;;;;;;1969183;72;22293;-77
2022/10/25 15:36:22;;;;;;;4.33;1.45;;;19.60;99.90;;;;;;1917419;75;21070;-77
2022/10/25 15:39:20;;;;;;;7.87;2.40;;;19.60;99.90;;;;;;1917487;75;21055;-77
2022/10/25 15:42:11;;;;;;;4.92;2.62;;;19.50;99.90;;;;;;1917594;75;21067;-77
2022/10/25 15:45:06;;;;;;;6.58;3.10;;;19.50;99.90;;;;;;1917513;75;21055;-77
2022/10/25 15:47:58;;;;;;;6.58;2.25;;;19.40;99.90;;;;;;1917508;75;21109;-77
2022/10/25 15:50:52;;;;;;;6.05;2.40;;;19.30;99.90;;;;;;1919552;73;21151;-77
2022/10/25 15:53:43;;;;;;;3.12;1.52;;;19.20;99.90;;;;;;1931657;73;21109;-78
2022/10/25 15:56:34;;;;;;;2.92;1.40;;;19.20;99.90;;;;;;1917668;75;21095;-78
2022/10/25 15:59:26;;;;;;;9.13;1.60;;;19.10;99.90;;;;;;1917498;75;21058;-78
2022/10/25 16:02:20;;;;;;;3.50;1.47;;;19.10;99.90;;;;;;1921389;73;21581;-78
2022/10/25 16:05:17;;;;;;;3.20;2.20;;;19.10;99.90;;;;;;1929310;73;21160;-77
2022/10/25 16:08:10;;;;;;;3.23;1.40;;;19.00;99.90;;;;;;1917805;75;21188;-76
2022/10/25 16:11:01;;;;;;;7.47;1.67;;;19.00;99.90;;;;;;1917556;75;21164;-77
2022/10/25 16:13:54;;;;;;;2.90;1.60;;;18.90;99.90;;;;;;1917608;75;21107;-77
2022/10/25 16:16:46;;;;;;;4.80;1.60;;;18.80;99.90;;;;;;1940508;73;21087;-78
2022/10/25 16:19:37;;;;;;;3.92;1.60;;;18.80;99.90;;;;;;1935511;73;21043;-77
2022/10/25 16:22:29;;;;;;;3.42;1.80;;;18.80;99.90;;;;;;1917517;75;21086;-77
2022/10/25 16:25:22;;;;;;;3.92;1.75;;;18.70;99.90;;;;;;1917298;75;21676;-78
2022/10/25 16:28:15;;;;;;;5.83;1.60;;;18.60;99.90;;;;;;1917454;75;21065;-77
2022/10/25 16:31:06;;;;;;;3.33;1.52;;;18.60;99.90;;;;;;1917599;75;21098;-77
2022/10/25 16:33:58;;;;;;;7.78;1.70;;;18.60;99.90;;;;;;1921832;74;21088;-77
2022/10/25 16:36:51;;;;;;;3.17;1.65;;;18.60;99.90;;;;;;1918617;73;21084;-77
2022/10/25 16:39:42;;;;;;;5.65;1.87;;;18.60;99.90;;;;;;1922617;73;21072;-76